createdAt,value
2023-04-12T00:00:11.696Z,5.00
2023-04-12T00:02:42.062Z,5.00
2023-04-12T00:05:11.411Z,5.00
2023-04-12T00:07:40.549Z,5.00
2023-04-12T00:10:11.378Z,5.10
2023-04-12T00:12:40.805Z,5.00
2023-04-12T00:15:10.504Z,5.10
2023-04-12T00:17:38.752Z,5.10
2023-04-12T00:20:12.553Z,5.10
2023-04-12T00:22:42.330Z,5.10
2023-04-12T00:25:12.760Z,5.10
2023-04-12T00:27:41.053Z,5.10
2023-04-12T00:30:10.310Z,5.10
2023-04-12T00:32:38.629Z,5.10
2023-04-12T00:35:08.282Z,5.20
2023-04-12T00:37:38.547Z,5.20
2023-04-12T00:40:10.272Z,5.20
2023-04-12T00:42:39.941Z,5.20
2023-04-12T00:45:09.550Z,5.20
2023-04-12T00:47:38.847Z,5.20
2023-04-12T00:50:09.453Z,5.20
2023-04-12T00:52:39.201Z,5.20
2023-04-12T00:55:09.427Z,5.30
2023-04-12T00:57:41.247Z,5.30
2023-04-12T01:00:13.558Z,5.30
2023-04-12T01:02:50.578Z,5.30
2023-04-12T01:05:23.933Z,5.30
2023-04-12T01:08:10.645Z,5.40
2023-04-12T01:10:50.958Z,5.40
2023-04-12T01:13:33.461Z,5.40
2023-04-12T01:16:12.594Z,5.40
2023-04-12T01:18:45.948Z,5.40
2023-04-12T01:21:19.697Z,5.40
2023-04-12T01:24:24.625Z,5.40
2023-04-12T01:26:57.618Z,5.50
2023-04-12T01:29:31.207Z,5.50
2023-04-12T01:32:02.480Z,5.50
2023-04-12T01:34:34.204Z,5.50
2023-04-12T01:37:04.763Z,5.50
2023-04-12T01:39:34.857Z,5.60
2023-04-12T01:42:04.122Z,5.60
2023-04-12T01:44:33.760Z,5.60
2023-04-12T01:47:02.234Z,5.70
2023-04-12T01:49:42.760Z,5.70
2023-04-12T01:52:20.304Z,5.70
2023-04-12T01:54:55.816Z,5.70
2023-04-12T01:57:25.838Z,5.80
2023-04-12T02:00:00.746Z,5.80
2023-04-12T02:02:29.976Z,5.80
2023-04-12T02:05:02.932Z,5.80
2023-04-12T02:07:31.870Z,5.90
2023-04-12T02:10:00.041Z,5.90
2023-04-12T02:12:28.207Z,5.90
2023-04-12T02:14:58.344Z,5.90
2023-04-12T02:17:27.177Z,5.90
2023-04-12T02:19:55.525Z,5.90
2023-04-12T02:22:23.717Z,5.90
2023-04-12T02:24:52.108Z,5.90
2023-04-12T02:27:20.356Z,5.90
2023-04-12T02:29:48.663Z,5.90
2023-04-12T02:32:18.709Z,5.90
2023-04-12T02:34:51.280Z,6.00
2023-04-12T02:37:24.252Z,6.00
2023-04-12T02:39:52.496Z,6.10
2023-04-12T02:42:21.865Z,6.10
2023-04-12T02:44:50.614Z,6.10
2023-04-12T02:47:20.183Z,6.20
2023-04-12T02:49:50.667Z,6.20
2023-04-12T02:52:20.382Z,6.20
2023-04-12T02:55:10.516Z,6.20
2023-04-12T02:57:38.736Z,6.30
2023-04-12T03:00:12.003Z,6.30
2023-04-12T03:02:45.969Z,6.30
2023-04-12T03:05:22.675Z,6.30
2023-04-12T03:07:52.101Z,6.30
2023-04-12T03:10:25.354Z,6.30
2023-04-12T03:13:01.897Z,6.30
2023-04-12T03:15:36.759Z,6.30
2023-04-12T03:18:07.193Z,6.20
2023-04-12T03:20:47.450Z,6.30
2023-04-12T03:23:16.403Z,6.30
2023-04-12T03:25:52.117Z,6.30
2023-04-12T03:28:34.663Z,6.30
2023-04-12T03:31:05.663Z,6.30
2023-04-12T03:33:42.585Z,6.30
2023-04-12T03:36:21.584Z,6.40
2023-04-12T03:38:54.818Z,6.40
2023-04-12T03:41:24.405Z,6.50
2023-04-12T03:43:52.728Z,6.50
2023-04-12T03:46:21.718Z,6.50
2023-04-12T03:48:58.646Z,6.60
2023-04-12T03:51:30.450Z,6.60
2023-04-12T03:54:04.209Z,6.60
2023-04-12T03:56:41.446Z,6.70
2023-04-12T03:59:16.559Z,6.70
2023-04-12T04:01:47.698Z,6.70
2023-04-12T04:04:18.103Z,6.80
2023-04-12T04:06:46.968Z,6.80
2023-04-12T04:09:17.997Z,6.80
2023-04-12T04:11:46.908Z,6.80
2023-04-12T04:14:15.083Z,6.90
2023-04-12T04:16:43.608Z,6.90
2023-04-12T04:19:11.904Z,7.00
2023-04-12T04:21:42.917Z,7.00
2023-04-12T04:24:13.286Z,7.00
2023-04-12T04:26:47.369Z,7.10
2023-04-12T04:29:29.078Z,7.10
2023-04-12T04:31:58.564Z,7.10
2023-04-12T04:34:27.624Z,7.20
2023-04-12T04:37:06.421Z,7.20
2023-04-12T04:39:36.200Z,7.20
2023-04-12T04:42:06.716Z,7.20
2023-04-12T04:44:42.628Z,7.30
2023-04-12T04:47:12.141Z,7.30
2023-04-12T04:49:41.258Z,7.30
2023-04-12T04:52:31.119Z,7.30
2023-04-12T04:55:06.853Z,7.30
2023-04-12T04:57:38.197Z,7.40
2023-04-12T05:00:10.930Z,7.40
2023-04-12T05:02:42.918Z,7.40
2023-04-12T05:05:15.821Z,7.40
2023-04-12T05:07:49.226Z,7.50
2023-04-12T05:10:17.618Z,7.50
2023-04-12T05:12:46.119Z,7.50
2023-04-12T05:15:16.157Z,7.50
2023-04-12T05:17:44.617Z,7.60
2023-04-12T05:20:12.911Z,7.60
2023-04-12T05:22:41.269Z,7.60
2023-04-12T05:25:11.615Z,7.70
2023-04-12T05:27:47.145Z,7.70
2023-04-12T05:30:18.394Z,7.80
2023-04-12T05:32:47.027Z,7.80
2023-04-12T05:35:17.573Z,7.90
2023-04-12T05:37:46.538Z,8.00
2023-04-12T05:40:16.774Z,8.00
2023-04-12T05:42:45.382Z,8.10
2023-04-12T05:45:13.835Z,8.10
2023-04-12T05:47:43.889Z,8.20
2023-04-12T05:50:12.811Z,8.30
2023-04-12T05:52:42.122Z,8.40
2023-04-12T05:55:10.976Z,8.50
2023-04-12T05:57:46.454Z,8.50
2023-04-12T06:00:18.943Z,8.60
2023-04-12T06:02:50.494Z,8.60
2023-04-12T06:05:19.667Z,8.60
2023-04-12T06:07:48.161Z,8.70
2023-04-12T06:10:18.219Z,8.70
2023-04-12T06:12:51.320Z,8.80
2023-04-12T06:15:20.908Z,8.90
2023-04-12T06:17:53.423Z,8.90
2023-04-12T06:20:21.781Z,8.90
2023-04-12T06:22:50.041Z,9.00
2023-04-12T06:25:18.888Z,9.00
2023-04-12T06:27:50.406Z,9.00
2023-04-12T06:30:20.899Z,9.00
2023-04-12T06:32:52.739Z,9.00
2023-04-12T06:35:21.535Z,9.10
2023-04-12T06:37:50.041Z,9.10
2023-04-12T06:40:18.526Z,9.10
2023-04-12T06:42:46.680Z,9.20
2023-04-12T06:45:21.246Z,9.20
2023-04-12T06:47:49.450Z,9.20
2023-04-12T06:50:18.438Z,9.30
2023-04-12T06:52:48.360Z,9.30
2023-04-12T06:55:16.757Z,9.40
2023-04-12T06:57:46.138Z,9.50
2023-04-12T07:00:15.566Z,9.50
2023-04-12T07:02:45.484Z,9.50
2023-04-12T07:05:15.720Z,9.60
2023-04-12T07:07:43.871Z,9.60
2023-04-12T07:10:12.422Z,9.60
2023-04-12T07:12:41.860Z,9.70
2023-04-12T07:15:11.082Z,9.70
2023-04-12T07:17:39.352Z,9.80
2023-04-12T07:20:10.218Z,9.80
2023-04-12T07:22:38.396Z,9.80
2023-04-12T07:25:10.100Z,9.90
2023-04-12T07:27:38.525Z,9.90
2023-04-12T07:30:08.496Z,9.90
2023-04-12T07:32:36.799Z,10.00
2023-04-12T07:35:05.978Z,10.00
2023-04-12T07:37:35.625Z,10.00
2023-04-12T07:40:04.224Z,10.10
2023-04-12T07:42:32.513Z,10.20
2023-04-12T07:45:01.016Z,10.20
2023-04-12T07:47:29.275Z,10.30
2023-04-12T07:49:57.514Z,10.40
2023-04-12T07:52:26.450Z,10.50
2023-04-12T07:54:56.109Z,10.60
2023-04-12T07:57:24.363Z,10.70
2023-04-12T07:59:52.583Z,10.80
2023-04-12T08:02:24.917Z,10.90
2023-04-12T08:04:53.964Z,11.00
2023-04-12T08:07:23.880Z,11.10
2023-04-12T08:09:52.049Z,11.20
2023-04-12T08:12:22.167Z,11.30
2023-04-12T08:14:50.365Z,11.50
2023-04-12T08:17:18.544Z,11.60
2023-04-12T08:19:46.735Z,11.70
2023-04-12T08:22:15.087Z,11.80
2023-04-12T08:24:43.239Z,12.00
2023-04-12T08:27:13.871Z,12.10
2023-04-12T08:29:43.573Z,12.20
2023-04-12T08:32:12.619Z,12.30
2023-04-12T08:34:40.895Z,12.40
2023-04-12T08:37:09.249Z,12.40
2023-04-12T08:39:37.600Z,12.40
2023-04-12T08:42:07.147Z,12.40
2023-04-12T08:44:37.838Z,12.40
2023-04-12T08:47:10.908Z,12.40
2023-04-12T08:49:39.653Z,12.40
2023-04-12T08:52:09.926Z,12.40
2023-04-12T08:54:38.820Z,12.50
2023-04-12T08:57:09.980Z,12.50
2023-04-12T08:59:40.575Z,12.50
2023-04-12T09:02:10.982Z,12.50
2023-04-12T09:04:49.882Z,12.50
2023-04-12T09:07:18.293Z,12.50
2023-04-12T09:09:48.849Z,12.50
2023-04-12T09:12:20.044Z,12.50
2023-04-12T09:14:48.301Z,12.40
2023-04-12T09:17:28.939Z,12.40
2023-04-12T09:19:57.086Z,12.30
2023-04-12T09:22:36.146Z,12.30
2023-04-12T09:25:04.698Z,12.20
2023-04-12T09:27:47.991Z,12.20
2023-04-12T09:30:19.017Z,12.10
2023-04-12T09:32:50.433Z,12.00
2023-04-12T09:35:18.940Z,11.90
2023-04-12T09:37:47.186Z,11.90
2023-04-12T09:40:15.740Z,11.80
2023-04-12T09:42:54.390Z,11.80
2023-04-12T09:45:25.771Z,11.80
2023-04-12T09:47:56.715Z,11.90
2023-04-12T09:50:28.475Z,11.90
2023-04-12T09:52:58.172Z,11.90
2023-04-12T09:55:29.634Z,12.00
2023-04-12T09:57:58.613Z,12.00
2023-04-12T10:00:27.693Z,11.90
2023-04-12T10:02:58.232Z,11.90
2023-04-12T10:05:27.911Z,11.90
2023-04-12T10:07:58.717Z,11.90
2023-04-12T10:10:31.731Z,11.90
2023-04-12T10:13:03.128Z,12.00
2023-04-12T10:15:33.615Z,12.10
2023-04-12T10:18:09.240Z,12.20
2023-04-12T10:20:41.279Z,12.30
2023-04-12T10:23:12.025Z,12.30
2023-04-12T10:25:42.075Z,12.40
2023-04-12T10:28:18.713Z,12.30
2023-04-12T10:30:48.241Z,12.30
2023-04-12T10:33:20.005Z,12.30
2023-04-12T10:35:57.848Z,12.30
2023-04-12T10:38:32.443Z,12.40
2023-04-12T10:41:18.230Z,12.50
2023-04-12T10:43:47.448Z,12.70
2023-04-12T10:46:51.166Z,12.90
2023-04-12T10:49:20.947Z,13.20
2023-04-12T10:52:20.827Z,13.60
2023-04-12T10:54:52.193Z,13.90
2023-04-12T10:57:47.078Z,14.00
2023-04-12T11:00:17.287Z,13.90
2023-04-12T11:03:12.092Z,13.80
2023-04-12T11:06:16.136Z,13.80
2023-04-12T11:09:23.314Z,13.90
2023-04-12T11:11:52.010Z,13.80
2023-04-12T11:14:29.939Z,13.80
2023-04-12T11:17:22.754Z,13.70
2023-04-12T11:19:58.135Z,13.70
2023-04-12T11:22:30.890Z,13.70
2023-04-12T11:25:01.478Z,13.80
2023-04-12T11:27:31.798Z,13.80
2023-04-12T11:30:02.088Z,13.70
2023-04-12T11:32:34.157Z,13.60
2023-04-12T11:35:02.759Z,13.40
2023-04-12T11:37:36.646Z,13.20
2023-04-12T11:40:06.452Z,13.00
2023-04-12T11:42:35.124Z,13.00
2023-04-12T11:45:10.208Z,13.10
2023-04-12T11:47:44.636Z,13.10
2023-04-12T11:50:13.220Z,13.20
2023-04-12T11:52:42.678Z,13.10
2023-04-12T11:55:11.830Z,13.00
2023-04-12T11:57:40.824Z,12.90
2023-04-12T12:00:10.836Z,12.80
2023-04-12T12:02:52.353Z,12.70
2023-04-12T12:05:30.480Z,12.70
2023-04-12T12:08:05.767Z,12.80
2023-04-12T12:13:12.268Z,12.90
2023-04-12T12:15:40.883Z,12.90
2023-04-12T12:18:10.306Z,12.90
2023-04-12T12:20:43.369Z,12.90
2023-04-12T12:23:13.043Z,12.90
2023-04-12T12:25:47.960Z,13.00
2023-04-12T12:28:16.397Z,13.10
2023-04-12T12:30:44.804Z,13.30
2023-04-12T12:33:14.012Z,13.60
2023-04-12T12:35:42.179Z,13.90
2023-04-12T12:38:13.169Z,14.10
2023-04-12T12:40:43.737Z,14.30
2023-04-12T12:43:20.525Z,14.30
2023-04-12T12:45:48.744Z,14.10
2023-04-12T12:48:19.356Z,14.00
2023-04-12T12:50:47.699Z,14.00
2023-04-12T12:53:17.361Z,14.00
2023-04-12T12:55:48.687Z,14.10
2023-04-12T12:58:16.990Z,14.10
2023-04-12T13:05:23.760Z,14.10
2023-04-12T13:07:52.095Z,14.10
2023-04-12T13:10:21.830Z,14.10
2023-04-12T13:12:50.283Z,14.00
2023-04-12T13:15:23.245Z,14.00
2023-04-12T13:17:53.950Z,14.00
2023-04-12T13:20:22.625Z,14.00
2023-04-12T13:22:52.105Z,14.00
2023-04-12T13:25:22.430Z,13.90
2023-04-12T13:27:51.603Z,13.90
2023-04-12T13:30:21.040Z,13.90
2023-04-12T13:32:49.277Z,13.90
2023-04-12T13:35:18.015Z,13.90
2023-04-12T13:37:46.230Z,14.00
2023-04-12T13:40:15.428Z,14.00
2023-04-12T13:42:45.134Z,14.10
2023-04-12T13:45:13.625Z,14.30
2023-04-12T13:47:41.902Z,14.80
2023-04-12T13:50:11.274Z,15.10
2023-04-12T13:52:40.193Z,15.30
2023-04-12T13:55:09.512Z,15.40
2023-04-12T13:57:37.772Z,15.40
2023-04-12T14:00:09.538Z,15.50
2023-04-12T14:02:37.850Z,15.40
2023-04-12T14:05:07.399Z,15.30
2023-04-12T14:07:35.768Z,15.20
2023-04-12T14:10:04.101Z,15.10
2023-04-12T14:12:32.380Z,15.10
2023-04-12T14:15:00.679Z,15.10
2023-04-12T14:17:32.651Z,15.10
2023-04-12T14:20:01.356Z,15.10
2023-04-12T14:22:30.149Z,15.20
2023-04-12T14:24:58.434Z,15.30
2023-04-12T14:27:27.214Z,15.40
2023-04-12T14:29:55.875Z,15.50
2023-04-12T14:32:24.199Z,15.60
2023-04-12T14:34:53.850Z,15.70
2023-04-12T14:37:22.590Z,15.70
2023-04-12T14:39:54.217Z,15.70
2023-04-12T14:42:24.497Z,15.70
2023-04-12T14:44:52.724Z,15.80
2023-04-12T14:47:20.963Z,16.00
2023-04-12T14:49:49.187Z,16.40
2023-04-12T14:52:18.794Z,17.10
2023-04-12T14:54:47.005Z,18.10
2023-04-12T14:57:15.503Z,18.50
2023-04-12T14:59:44.022Z,18.60
2023-04-12T15:02:12.291Z,18.50
2023-04-12T15:04:40.816Z,18.70
2023-04-12T15:07:09.346Z,19.00
2023-04-12T15:09:40.185Z,19.00
2023-04-12T15:12:09.325Z,18.80
2023-04-12T15:14:38.114Z,18.60
2023-04-12T15:17:06.349Z,18.30
2023-04-12T15:19:34.530Z,18.10
2023-04-12T15:22:02.771Z,17.80
2023-04-12T15:24:31.723Z,17.70
2023-04-12T15:27:01.910Z,17.60
2023-04-12T15:29:31.735Z,17.60
2023-04-12T15:32:00.336Z,17.60
2023-04-12T15:34:30.047Z,17.60
2023-04-12T15:36:59.003Z,17.50
2023-04-12T15:39:27.636Z,17.40
2023-04-12T15:41:56.066Z,17.30
2023-04-12T15:44:31.543Z,17.20
2023-04-12T15:47:10.415Z,17.10
2023-04-12T15:49:39.819Z,16.90
2023-04-12T15:52:08.169Z,16.90
2023-04-12T15:54:43.380Z,16.80
2023-04-12T15:57:12.430Z,16.70
2023-04-12T15:59:42.955Z,16.60
2023-04-12T16:02:11.174Z,16.70
2023-04-12T16:04:40.555Z,17.50
2023-04-12T16:07:09.117Z,18.50
2023-04-12T16:09:42.254Z,19.10
2023-04-12T16:12:10.547Z,19.20
2023-04-12T16:14:39.345Z,18.80
2023-04-12T16:17:09.168Z,18.60
2023-04-12T16:19:37.536Z,18.30
2023-04-12T16:22:05.763Z,18.10
2023-04-12T16:24:34.068Z,17.90
2023-04-12T16:27:02.392Z,17.90
2023-04-12T16:29:31.543Z,17.90
2023-04-12T16:31:59.892Z,17.80
2023-04-12T16:34:29.505Z,17.60
2023-04-12T16:36:58.014Z,17.40
2023-04-12T16:39:26.745Z,17.10
2023-04-12T16:41:54.950Z,16.80
2023-04-12T16:44:23.374Z,16.60
2023-04-12T16:46:51.596Z,16.40
2023-04-12T16:49:20.105Z,16.20
2023-04-12T16:51:51.682Z,16.10
2023-04-12T16:54:20.399Z,15.90
2023-04-12T16:56:48.648Z,15.80
2023-04-12T16:59:16.795Z,15.70
2023-04-12T17:01:45.831Z,15.60
2023-04-12T17:04:14.516Z,15.50
2023-04-12T17:06:44.191Z,15.40
2023-04-12T17:09:13.723Z,15.30
2023-04-12T17:11:41.938Z,15.20
2023-04-12T17:14:11.266Z,15.10
2023-04-12T17:16:39.956Z,15.00
2023-04-12T17:19:10.444Z,14.90
2023-04-12T17:21:42.690Z,14.80
2023-04-12T17:24:11.045Z,14.80
2023-04-12T17:26:40.723Z,14.70
2023-04-12T17:29:09.273Z,14.70
2023-04-12T17:31:37.731Z,14.60
2023-04-12T17:34:06.284Z,14.60
2023-04-12T17:36:34.667Z,14.50
2023-04-12T17:39:04.919Z,14.40
2023-04-12T17:41:33.225Z,14.20
2023-04-12T17:44:02.883Z,14.10
2023-04-12T17:46:31.454Z,13.90
2023-04-12T17:49:02.586Z,13.90
2023-04-12T17:51:31.520Z,13.80
2023-04-12T17:54:00.418Z,13.60
2023-04-12T17:56:28.933Z,13.50
2023-04-12T17:58:57.392Z,13.40
2023-04-12T18:01:27.389Z,13.40
2023-04-12T18:03:57.510Z,13.30
2023-04-12T18:06:25.990Z,13.20
2023-04-12T18:08:54.220Z,13.10
2023-04-12T18:11:22.463Z,12.90
2023-04-12T18:13:50.914Z,12.90
2023-04-12T18:16:19.307Z,12.80
2023-04-12T18:18:48.872Z,12.70
2023-04-12T18:21:20.965Z,12.60
2023-04-12T18:23:49.236Z,12.60
2023-04-12T18:26:17.560Z,12.50
2023-04-12T18:28:45.936Z,12.50
2023-04-12T18:31:14.437Z,12.40
2023-04-12T18:33:42.882Z,12.40
2023-04-12T18:36:12.664Z,12.30
2023-04-12T18:38:40.913Z,12.20
2023-04-12T18:41:15.058Z,12.20
2023-04-12T18:43:46.739Z,12.10
2023-04-12T18:46:17.761Z,12.00
2023-04-12T18:48:47.931Z,11.90
2023-04-12T18:51:17.613Z,11.90
2023-04-12T18:53:45.862Z,11.90
2023-04-12T18:56:17.254Z,11.90
2023-04-12T19:01:20.121Z,11.80
2023-04-12T19:03:49.761Z,11.70
2023-04-12T19:06:19.588Z,11.60
2023-04-12T19:08:49.660Z,11.60
2023-04-12T19:11:17.976Z,11.60
2023-04-12T19:13:46.338Z,11.60
2023-04-12T19:16:14.716Z,11.60
2023-04-12T19:18:43.022Z,11.60
2023-04-12T19:21:11.381Z,11.60
2023-04-12T19:23:41.023Z,11.60
2023-04-12T19:26:09.568Z,11.50
2023-04-12T19:28:37.905Z,11.50
2023-04-12T19:31:09.685Z,11.40
2023-04-12T19:33:40.953Z,11.40
2023-04-12T19:36:09.921Z,11.40
2023-04-12T19:38:41.235Z,11.40
2023-04-12T19:41:10.901Z,11.40
2023-04-12T19:43:39.179Z,11.40
2023-04-12T19:46:07.643Z,11.30
2023-04-12T19:48:36.080Z,11.30
2023-04-12T19:51:05.205Z,11.30
2023-04-12T19:53:34.044Z,11.30
2023-04-12T19:56:04.185Z,11.30
2023-04-12T19:58:34.503Z,11.30
2023-04-12T20:01:03.283Z,11.30
2023-04-12T20:03:32.782Z,11.20
2023-04-12T20:06:04.249Z,11.20
2023-04-12T20:08:33.042Z,11.20
2023-04-12T20:11:02.531Z,11.10
2023-04-12T20:13:31.345Z,11.10
2023-04-12T20:16:04.394Z,11.00
2023-04-12T20:18:32.614Z,11.00
2023-04-12T20:21:00.942Z,10.90
2023-04-12T20:23:29.634Z,10.90
2023-04-12T20:25:57.938Z,10.90
2023-04-12T20:28:26.459Z,10.80
2023-04-12T20:30:54.806Z,10.80
2023-04-12T20:33:24.632Z,10.70
2023-04-12T20:35:54.072Z,10.60
2023-04-12T20:38:22.489Z,10.60
2023-04-12T20:40:51.371Z,10.60
2023-04-12T20:43:20.326Z,10.50
2023-04-12T20:45:48.714Z,10.40
2023-04-12T20:48:17.148Z,10.30
2023-04-12T20:50:46.922Z,10.30
2023-04-12T20:53:17.425Z,10.20
2023-04-12T20:55:46.524Z,10.10
2023-04-12T20:58:16.302Z,10.10
2023-04-12T21:00:44.571Z,10.10
2023-04-12T21:03:12.909Z,10.10
2023-04-12T21:05:41.923Z,10.10
2023-04-12T21:08:11.773Z,10.10
2023-04-12T21:10:41.016Z,10.10
2023-04-12T21:13:11.244Z,10.10
2023-04-12T21:15:40.315Z,10.10
2023-04-12T21:18:09.215Z,10.10
2023-04-12T21:20:38.133Z,10.10
2023-04-12T21:23:07.474Z,10.10
2023-04-12T21:25:37.106Z,10.20
2023-04-12T21:28:06.709Z,10.20
2023-04-12T21:30:34.935Z,10.10
2023-04-12T21:33:04.311Z,10.10
2023-04-12T21:35:32.644Z,10.20
2023-04-12T21:38:01.364Z,10.10
2023-04-12T21:40:29.630Z,10.10
2023-04-12T21:42:59.149Z,10.10
2023-04-12T21:45:27.629Z,10.10
2023-04-12T21:47:55.974Z,10.10
2023-04-12T21:50:24.419Z,10.10
2023-04-12T21:52:54.609Z,10.10
2023-04-12T21:55:23.231Z,10.00
2023-04-12T21:57:52.891Z,10.00
2023-04-12T22:00:24.811Z,10.00
2023-04-12T22:02:53.280Z,10.00
2023-04-12T22:05:21.935Z,10.00
2023-04-12T22:07:50.292Z,10.00
2023-04-12T22:10:20.462Z,10.00
2023-04-12T22:12:50.316Z,10.00
2023-04-12T22:15:19.135Z,10.00
2023-04-12T22:17:49.101Z,10.00
2023-04-12T22:20:17.809Z,10.00
2023-04-12T22:22:46.107Z,9.90
2023-04-12T22:25:15.486Z,9.90
2023-04-12T22:27:46.279Z,9.90
2023-04-12T22:30:15.805Z,9.90
2023-04-12T22:32:44.164Z,9.90
2023-04-12T22:35:13.751Z,9.90
2023-04-12T22:37:43.087Z,9.90
2023-04-12T22:40:13.420Z,9.90
2023-04-12T22:42:46.557Z,9.90
2023-04-12T22:45:15.736Z,9.90
2023-04-12T22:47:44.423Z,9.90
2023-04-12T22:50:14.996Z,9.90
2023-04-12T22:52:43.338Z,9.90
2023-04-12T22:55:14.328Z,9.90
2023-04-12T22:57:42.724Z,9.90
2023-04-12T23:00:16.954Z,9.90
2023-04-12T23:02:48.534Z,9.80
2023-04-12T23:05:19.855Z,9.80
2023-04-12T23:07:49.326Z,9.80
2023-04-12T23:10:18.198Z,9.80
2023-04-12T23:12:46.682Z,9.80
2023-04-12T23:15:14.848Z,9.80
2023-04-12T23:17:43.127Z,9.80
2023-04-12T23:20:14.574Z,9.70
2023-04-12T23:22:57.865Z,9.70
2023-04-12T23:25:39.316Z,9.70
2023-04-12T23:28:12.555Z,9.70
2023-04-12T23:30:43.759Z,9.70
2023-04-12T23:33:12.811Z,9.70
2023-04-12T23:35:42.123Z,9.60
2023-04-12T23:38:15.409Z,9.60
2023-04-12T23:40:44.373Z,9.60
2023-04-12T23:43:12.647Z,9.50
2023-04-12T23:45:40.781Z,9.50
2023-04-12T23:48:08.942Z,9.50
2023-04-12T23:50:37.308Z,9.40
2023-04-12T23:53:06.950Z,9.50
2023-04-12T23:55:36.784Z,9.50
2023-04-12T23:58:05.162Z,9.50
